Flight Track Log - Related Links

Times and Time Zones

All times are in EST time to prevent confusion due to time zone crossing. See the UPS2844 flight status page for this flight to view local times or setup timezone preferences in your user account.

Time Position Orientation Groundspeed Altitude Reporting Facility
EST Latitude Longitude Course Direction KTS MPH feet Rate Location/Type
Fri 04:24:58 PM 38.1836 -85.8603 270° West 228 262 5,100  Level Indianapolis Center
Fri 04:26:01 PM 38.1528 -85.9314 241° Southwest 235 270 8,500 2,400 Climbing Indianapolis Center
Fri 04:27:03 PM 38.1361 -86.0133 256° West 245 282 10,100 2,177 Climbing Indianapolis Center
Fri 04:28:05 PM 38.1594 -86.1131 287° West 283 326 13,000 3,677 Climbing Indianapolis Center
Fri 04:29:00 PM 38.1634 -85.7378 186° South  Level FlightAware Approximate
Fri 04:29:07 PM 38.1789 -86.2389 281° West 296 341 17,700  Level Indianapolis Center
Fri 04:30:00 PM 38.1883 -85.8508 270° West  Level Estimated
Fri 04:30:09 PM 38.1975 -86.3436 283° West 297 342 20,900  Level Indianapolis Center
Fri 04:31:11 PM 38.2178 -86.4531 283° West 310 357 24,000 2,710 Climbing Indianapolis Center
Fri 04:32:13 PM 38.2372 -86.5642 283° West 316 364 26,500 2,226 Climbing Indianapolis Center
Fri 04:33:15 PM 38.2581 -86.6781 283° West 322 371 28,600 2,129 Climbing Indianapolis Center
Fri 04:34:17 PM 38.2783 -86.7964 282° West 333 383 30,900 1,887 Climbing Indianapolis Center
Fri 04:35:19 PM 38.2994 -86.9147 283° West 339 390 32,500 1,790 Climbing Indianapolis Center
Fri 04:36:21 PM 38.3242 -87.0581 282° West 340 391 34,600 1,403 Climbing Indianapolis Center
Fri 04:37:23 PM 38.3450 -87.1775 283° West 341 392 35,400 677 Climbing Indianapolis Center
Fri 04:38:25 PM 38.3647 -87.2939 282° West 352 405 36,000 290 Climbing Indianapolis Center
Fri 04:39:27 PM 38.3858 -87.4194 282° West 358 412 36,000  Level Indianapolis Center
Fri 04:40:29 PM 38.4117 -87.5722 282° West 361 415 36,000  Level Indianapolis Center
Fri 04:41:31 PM 38.4325 -87.6983 282° West 362 417 36,000  Level Indianapolis Center
Fri 04:42:33 PM 38.4533 -87.8258 282° West 362 417 36,000  Level Indianapolis Center
Fri 04:43:35 PM 38.4750 -87.9542 282° West 365 420 36,000  Level Indianapolis Center
Fri 04:44:37 PM 38.4958 -88.0828 282° West 366 421 36,000  Level Indianapolis Center
Fri 04:45:39 PM 38.5164 -88.2144 281° West 371 427 36,000  Level Kansas City Center
Fri 04:46:42 PM 38.5369 -88.3433 282° West 371 427 36,000  Level Kansas City Center
Fri 04:47:44 PM 38.5597 -88.4875 281° West 376 433 36,000 98 Level Kansas City Center
Fri 04:48:44 PM 38.5822 -88.6308 281° West 374 430 36,200 480 Climbing Kansas City Center
Fri 04:49:49 PM 38.6039 -88.7569 282° West 377 434 37,000 768 Climbing Kansas City Center
Fri 04:50:49 PM 38.6206 -88.8753 280° West 369 425 37,800 496 Climbing Kansas City Center
Fri 04:51:50 PM 38.6458 -89.0303 282° West 373 429 38,000 96 Climbing Kansas City Center
Fri 04:52:54 PM 38.6667 -89.1622 281° West 377 434 38,000  Level Kansas City Center
Fri 04:53:55 PM 38.6867 -89.2942 281° West 377 434 38,000  Level Kansas City Center
Fri 04:54:59 PM 38.7061 -89.4269 281° West 377 434 38,000  Level Kansas City Center
Fri 04:55:59 PM 38.7264 -89.5594 281° West 379 436 38,000  Level Kansas City Center
Fri 04:57:02 PM 38.7461 -89.6931 281° West 381 438 38,000  Level Kansas City Center
Fri 04:58:03 PM 38.7700 -89.8528 281° West 381 438 38,000  Level Kansas City Center
Fri 04:59:07 PM 38.8008 -89.9831 287° West 384 442 38,000  Level Kansas City Center
Fri 05:00:07 PM 38.8386 -90.1028 292° West 387 445 38,000  Level Kansas City Center
Fri 05:01:09 PM 38.8861 -90.2561 292° West 387 445 38,000  Level Kansas City Center
Fri 05:02:11 PM 38.9242 -90.3831 291° West 385 443 38,000  Level Kansas City Center
Fri 05:03:15 PM 38.9628 -90.5094 291° West 383 441 38,000  Level Kansas City Center
Fri 05:04:15 PM 39.0036 -90.6328 293° West 382 440 38,000  Level Kansas City Center
Fri 05:05:18 PM 39.0331 -90.7597 287° West 379 436 38,000  Level Kansas City Center
Fri 05:06:19 PM 39.0508 -90.8881 280° West 373 429 38,000  Level Kansas City Center
Fri 05:07:23 PM 39.0689 -91.0192 280° West 372 428 38,000  Level Kansas City Center
Fri 05:08:24 PM 39.0906 -91.1775 280° West 372 428 38,000  Level Kansas City Center
Fri 05:09:27 PM 39.1078 -91.3086 280° West 373 429 38,000  Level Kansas City Center
Fri 05:10:28 PM 39.1247 -91.4422 279° West 373 429 38,000  Level Kansas City Center
Fri 05:11:31 PM 39.1425 -91.5756 280° West 376 433 38,000  Level Kansas City Center
Fri 05:12:32 PM 39.1606 -91.7203 279° West 383 441 38,000  Level Kansas City Center
Fri 05:13:35 PM 39.1783 -91.8575 280° West 384 442 38,000  Level Kansas City Center
Fri 05:14:36 PM 39.1986 -92.0211 279° West 384 442 38,000  Level Kansas City Center
Fri 05:15:40 PM 39.2156 -92.1572 279° West 384 442 38,000  Level Kansas City Center
Fri 05:16:41 PM 39.2325 -92.2942 279° West 385 443 38,000  Level Kansas City Center
Fri 05:17:44 PM 39.2486 -92.4303 279° West 385 443 38,000  Level Kansas City Center
Fri 05:18:44 PM 39.2656 -92.5739 279° West 385 443 38,000  Level Kansas City Center
Fri 05:19:46 PM 39.2817 -92.7083 279° West 384 442 38,000  Level Kansas City Center
Fri 05:20:49 PM 39.2972 -92.8433 279° West 384 442 38,000  Level Kansas City Center
Fri 05:21:50 PM 39.3136 -92.9792 279° West 384 442 38,000  Level Kansas City Center
Fri 05:22:54 PM 39.3294 -93.1164 279° West 384 442 38,000  Level Kansas City Center
Fri 05:23:55 PM 39.3486 -93.2878 278° West 397 457 38,000  Level Kansas City Center
Fri 05:24:56 PM 39.3639 -93.4333 278° West 404 465 38,000  Level Kansas City Center
Fri 05:26:00 PM 39.3819 -93.5797 279° West 411 473 38,000  Level Kansas City Center
Fri 05:27:00 PM 39.3967 -93.7217 278° West 407 468 38,000  Level Kansas City Center
Fri 05:28:04 PM 39.4150 -93.8836 278° West 399 459 38,000  Level Kansas City Center
Fri 05:29:05 PM 39.4292 -94.0164 278° West 393 452 38,000  Level Kansas City Center
Fri 05:30:06 PM 39.4456 -94.1706 278° West 389 448 38,000  Level Kansas City Center
Fri 05:31:08 PM 39.4594 -94.3000 278° West 387 445 38,000  Level Kansas City Center
Fri 05:32:12 PM 39.4753 -94.4519 278° West 385 443 38,000  Level Kansas City Center
Fri 05:33:13 PM 39.4878 -94.5811 277° West 382 440 38,000  Level Kansas City Center
Fri 05:34:17 PM 39.5031 -94.7308 278° West 380 437 38,000  Level Kansas City Center
Fri 05:35:18 PM 39.5161 -94.8589 278° West 379 436 38,000  Level Kansas City Center
Fri 05:36:19 PM 39.5300 -95.0092 277° West 379 436 38,000  Level Kansas City Center
Fri 05:37:23 PM 39.5436 -95.1375 278° West 379 436 38,000  Level Kansas City Center
Fri 05:38:25 PM 39.5578 -95.2889 277° West 380 437 38,000  Level Kansas City Center
Fri 05:39:26 PM 39.5711 -95.4203 278° West 382 440 38,000  Level Kansas City Center
Fri 05:40:27 PM 39.5850 -95.5728 277° West 383 441 38,000  Level Kansas City Center
Fri 05:41:31 PM 39.5975 -95.7050 277° West 385 443 38,000  Level Kansas City Center
Fri 05:42:33 PM 39.6114 -95.8594 277° West 385 443 38,000  Level Kansas City Center
Fri 05:43:36 PM 39.6233 -95.9917 277° West 386 444 38,000  Level Kansas City Center
Fri 05:44:36 PM 39.6364 -96.1444 276° West 385 443 38,000  Level Kansas City Center
Fri 05:45:38 PM 39.6475 -96.2764 276° West 385 443 38,000  Level Kansas City Center
Fri 05:46:41 PM 39.6614 -96.4283 277° West 384 442 38,000  Level Kansas City Center
Fri 05:47:42 PM 39.6728 -96.5594 276° West 383 441 38,000  Level Kansas City Center
Fri 05:48:44 PM 39.6850 -96.7133 276° West 383 441 38,000  Level Kansas City Center
Fri 05:49:48 PM 39.6958 -96.8444 276° West 383 441 38,000  Level Kansas City Center
Fri 05:50:49 PM 39.7064 -96.9925 275° West 382 440 38,000  Level Kansas City Center
Fri 05:51:52 PM 39.7181 -97.1286 276° West 381 438 38,000  Level Kansas City Center
Fri 05:52:53 PM 39.7269 -97.2597 275° West 380 437 38,000  Level Kansas City Center
Fri 05:53:55 PM 39.7361 -97.3961 275° West 380 437 38,000  Level Kansas City Center
Fri 05:56:12 PM 39.7644 -97.7222 277° West 378 435 38,000  Level Minneapolis Center
Fri 05:57:13 PM 39.7744 -97.8586 275° West 378 435 38,000  Level Minneapolis Center
Fri 05:58:15 PM 39.7842 -97.9950 275° West 381 438 38,000  Level Minneapolis Center
Fri 05:59:17 PM 39.7942 -98.1331 275° West 383 441 38,000  Level Minneapolis Center
Fri 06:00:18 PM 39.8036 -98.2717 275° West 383 441 38,000  Level Minneapolis Center
Fri 06:01:20 PM 39.8131 -98.4094 275° West 383 441 38,000  Level Minneapolis Center
Fri 06:02:22 PM 39.8244 -98.5756 275° West 383 441 38,000  Level Minneapolis Center
Fri 06:03:23 PM 39.8336 -98.7169 275° West 384 442 38,000  Level Minneapolis Center
Fri 06:04:25 PM 39.8425 -98.8531 275° West 384 442 38,000  Level Minneapolis Center
Fri 06:05:27 PM 39.8514 -98.9917 275° West 383 441 38,000  Level Minneapolis Center
Fri 06:06:28 PM 39.8600 -99.1300 275° West 383 441 38,000  Level Minneapolis Center
Fri 06:07:30 PM 39.8683 -99.2686 275° West 382 440 38,000  Level Minneapolis Center
Fri 06:08:32 PM 39.8767 -99.4069 275° West 383 441 38,000  Level Minneapolis Center
Fri 06:09:33 PM 39.8850 -99.5456 275° West 383 441 38,000  Level Minneapolis Center
Fri 06:10:35 PM 39.8928 -99.6844 274° West 384 442 38,000  Level Minneapolis Center
Fri 06:11:37 PM 39.9022 -99.8517 274° West 386 444 38,000  Level Minneapolis Center
Fri 06:12:38 PM 39.9097 -99.9914 274° West 386 444 38,000  Level Minneapolis Center
Fri 06:13:40 PM 39.9175 -100.1308 274° West 385 443 38,000  Level Minneapolis Center
Fri 06:14:41 PM 39.9247 -100.2731 274° West 384 442 38,000  Level Minneapolis Center
Fri 06:15:43 PM 39.9317 -100.4089 274° West 383 441 38,000  Level Minneapolis Center
Fri 06:17:05 PM 39.9408 -100.5997 274° West 386 444 38,000  Level Denver Center
Fri 06:18:07 PM 39.9486 -100.7514 274° West 378 435 38,000  Level Denver Center
Fri 06:19:09 PM 39.9547 -100.8831 274° West 379 436 38,000  Level Denver Center
Fri 06:20:11 PM 39.9606 -101.0139 273° West 378 435 38,000  Level Denver Center
Fri 06:21:13 PM 39.9678 -101.1683 274° West 380 437 38,000  Level Denver Center
Fri 06:22:15 PM 39.9731 -101.3014 273° West 383 441 38,000  Level Denver Center
Fri 06:23:17 PM 39.9789 -101.4600 273° West 390 449 38,000  Level Denver Center
Fri 06:24:19 PM 39.9856 -101.5953 274° West 391 450 38,000  Level Denver Center
Fri 06:25:21 PM 39.9914 -101.7553 273° West 395 455 38,000  Level Denver Center
Fri 06:26:23 PM 39.9967 -101.8928 273° West 396 456 38,000  Level Denver Center
Fri 06:27:25 PM 40.0022 -102.0303 273° West 396 456 38,000  Level Denver Center
Fri 06:28:27 PM 40.0078 -102.1911 273° West 397 457 38,000  Level Denver Center
Fri 06:29:28 PM 40.0119 -102.3067 273° West 398 458 38,000  Level Denver Center
Fri 06:30:31 PM 40.0169 -102.4903 272° West 398 458 38,000  Level Denver Center
Fri 06:31:33 PM 40.0219 -102.6281 273° West 397 457 38,000  Level Denver Center
Fri 06:32:35 PM 40.0267 -102.7728 272° West 401 461 38,000  Level Denver Center
Fri 06:33:36 PM 40.0306 -102.9167 272° West 398 458 38,000  Level Denver Center
Fri 06:34:38 PM 40.0350 -103.0889 272° West 397 457 38,000  Level Denver Center
Fri 06:35:40 PM 40.0389 -103.2322 272° West 396 456 38,000  Level Denver Center
Fri 06:36:42 PM 40.0436 -103.3736 273° West 393 452 38,000  Level Denver Center
Fri 06:37:44 PM 40.0461 -103.5147 271° West 392 451 38,000  Level Denver Center
Fri 06:38:46 PM 40.0489 -103.6544 272° West 388 447 38,000  Level Denver Center
Fri 06:39:49 PM 40.0536 -103.8211 272° West 385 443 38,000  Level Denver Center
Fri 06:40:51 PM 40.0564 -103.9600 272° West 385 443 38,000  Level Denver Center
Fri 06:41:53 PM 40.0586 -104.0997 271° West 388 447 38,000  Level Denver Center
Fri 06:42:55 PM 40.0611 -104.2400 271° West 388 447 38,000  Level Denver Center
Fri 06:43:57 PM 40.0639 -104.3792 272° West 388 447 38,000  Level Denver Center
Fri 06:44:59 PM 40.0656 -104.5203 271° West 391 450 38,000  Level Denver Center
Fri 06:46:01 PM 40.0689 -104.6908 272° West 395 455 38,000  Level Denver Center
Fri 06:47:03 PM 40.0697 -104.8325 270° West 394 453 38,000  Level Denver Center
Fri 06:48:05 PM 40.0714 -104.9725 271° West 391 450 38,000  Level Denver Center
Fri 06:49:07 PM 40.0736 -105.1142 271° West 393 452 38,000  Level Denver Center
Fri 06:50:09 PM 40.0747 -105.2617 271° West 405 466 38,000  Level Denver Center
Fri 06:51:11 PM 40.0764 -105.4378 271° West 407 468 38,000  Level Denver Center
Fri 06:52:25 PM 40.0767 -105.6047 270° West 389 448 38,000  Level Denver Center
Fri 06:53:27 PM 40.0775 -105.7386 271° West 376 433 38,000  Level Denver Center
Fri 06:54:29 PM 40.0786 -105.8661 271° West 361 415 38,000  Level Denver Center
Fri 06:55:31 PM 40.0789 -105.9981 270° West 363 418 38,000  Level Denver Center
Fri 06:56:33 PM 40.0775 -106.1625 269° West 376 433 38,000  Level Denver Center
Fri 06:57:36 PM 40.0778 -106.3014 270° West 384 442 38,000  Level Denver Center
Fri 06:58:38 PM 40.0789 -106.4411 271° West 386 444 38,000  Level Denver Center
Fri 06:59:40 PM 40.0794 -106.5997 270° West 393 452 38,000  Level Denver Center
Fri 07:00:42 PM 40.0781 -106.7367 269° West 394 453 38,000  Level Denver Center
Fri 07:01:44 PM 40.0786 -106.8942 270° West 391 450 38,000  Level Denver Center
Fri 07:02:46 PM 40.0769 -107.0297 269° West 391 450 38,000  Level Denver Center
Fri 07:03:48 PM 40.0758 -107.1897 270° West 393 452 38,000  Level Denver Center
Fri 07:04:50 PM 40.0753 -107.3239 270° West 389 448 38,000  Level Denver Center
Fri 07:05:52 PM 40.0744 -107.4567 270° West 386 444 38,000  Level Denver Center
Fri 07:07:06 PM 40.0717 -107.6322 269° West 381 438 38,000  Level Denver Center
Fri 07:08:08 PM 40.0700 -107.7844 269° West 378 435 38,000  Level Denver Center
Fri 07:09:11 PM 40.0672 -107.9147 268° West 376 433 38,000  Level Denver Center
Fri 07:10:13 PM 40.0736 -108.0664 273° West 376 433 38,000  Level Denver Center
Fri 07:11:15 PM 40.0806 -108.1961 274° West 378 435 38,000  Level Denver Center
Fri 07:12:17 PM 40.0864 -108.3481 273° West 376 433 38,000  Level Denver Center
Fri 07:13:19 PM 40.0919 -108.4786 273° West 378 435 38,000 -435 Level Denver Center
Fri 07:14:21 PM 40.0983 -108.6314 273° West 380 437 37,100 -823 Descending Denver Center
Fri 07:15:23 PM 40.1033 -108.7581 273° West 371 427 36,300 -532 Descending Denver Center
Fri 07:16:25 PM 40.1083 -108.9036 273° West 362 417 36,000 -145 Descending Denver Center
Fri 07:17:27 PM 40.1131 -109.0242 273° West 353 406 36,000  Level Denver Center
Fri 07:18:29 PM 40.1189 -109.1703 273° West 359 413 36,000  Level Denver Center
Fri 07:19:06 PM 40.1222 -109.2547 273° West 362 417 36,000  Level Salt Lake Center
Fri 07:20:08 PM 40.1261 -109.3822 272° West 367 422 36,000  Level Salt Lake Center
Fri 07:21:09 PM 40.1300 -109.5103 272° West 369 425 36,000 -195 Level Salt Lake Center
Fri 07:22:11 PM 40.1344 -109.6575 272° West 365 420 35,600 -1,016 Descending Salt Lake Center
Fri 07:23:13 PM 40.1389 -109.7808 273° West 358 412 33,900 -1,839 Descending Salt Lake Center
Fri 07:24:15 PM 40.1436 -109.9211 273° West 349 402 31,800 -1,854 Descending Salt Lake Center
Fri 07:25:16 PM 40.1472 -110.0417 272° West 347 399 30,100 -878 Descending Salt Lake Center
Fri 07:26:18 PM 40.1494 -110.1811 271° West 345 397 30,000 -48 Descending Salt Lake Center
Fri 07:27:20 PM 40.1472 -110.3025 269° West 348 400 30,000  Level Salt Lake Center
Fri 07:28:21 PM 40.1461 -110.4436 269° West 347 399 30,000  Level Salt Lake Center
Fri 07:29:23 PM 40.1458 -110.5656 270° West 349 402 30,000  Level Salt Lake Center
Fri 07:30:25 PM 40.1439 -110.6867 269° West 349 402 30,000 -581 Level Salt Lake Center
Fri 07:31:27 PM 40.1422 -110.8139 269° West 316 364 28,800 -1,463 Descending Salt Lake Center
Fri 07:32:28 PM 40.1411 -110.9161 269° West 298 343 27,000 -1,902 Descending Salt Lake Center
Fri 07:33:30 PM 40.1400 -111.0342 269° West 296 341 24,900 -1,984 Descending Salt Lake Center
Fri 07:34:32 PM 40.1392 -111.1422 269° West 299 344 22,900 -1,951 Descending Salt Lake Center
Fri 07:35:33 PM 40.1372 -111.2508 269° West 298 343 20,900 -1,902 Descending Salt Lake Center
Fri 07:36:35 PM 40.1331 -111.3625 267° West 305 351 19,000 -1,790 Descending Salt Lake Center
Fri 07:37:37 PM 40.1317 -111.4747 269° West 309 356 17,200 -1,886 Descending Salt Lake Center
Fri 07:37:45 PM 40.1281 -111.5061 261° West 308 354 16,800 -1,286 Descending Salt Lake Center
Fri 07:38:33 PM 40.1417 -111.5942 281° West 276 318 16,000 -792 Descending Salt Lake Center
Fri 07:38:38 PM 40.1417 -111.5778 90° East 289 333 16,100 -1,091 Climbing Salt Lake Center
Fri 07:39:28 PM 40.1708 -111.6742 292° West 271 312 15,000 -1,355 Descending Salt Lake Center
Fri 07:39:40 PM 40.1808 -111.6856 319° Northwest 270 311 14,700 -896 Descending Salt Lake Center
Fri 07:40:35 PM 40.2158 -111.7600 302° West 264 304 14,000 -871 Descending Salt Lake Center
Fri 07:40:42 PM 40.2256 -111.7617 353° North 266 306 13,800 -1,739 Descending Salt Lake Center
Fri 07:41:44 PM 40.2869 -111.8150 326° Northwest 267 307 12,000 -1,500 Descending Salt Lake Center
Fri 07:42:46 PM 40.3547 -111.8686 329° Northwest 284 327 10,700 -1,292 Descending Salt Lake Center
Fri 07:42:49 PM 40.3583 -111.8803 292° West 285 328 10,600 -621 Descending Salt Lake Center
Fri 07:43:44 PM 40.4214 -111.9264 331° Northwest 280 322 10,100 -517 Descending Salt Lake Center
Fri 07:43:47 PM 40.4217 -111.9217 86° East 280 322 10,100  Level Salt Lake Center
Fri 07:44:49 PM 40.4833 -111.9397 347° North 222 255 10,100 -95 Level Salt Lake Center
Fri 07:44:50 PM 40.4919 -111.9450 335° Northwest 216 249 10,000 -1,452 Descending Salt Lake Center
Fri 07:45:51 PM 40.5556 -111.9514 356° North 228 262 8,600 -1,180 Descending Salt Lake Center
Fri 07:46:52 PM 40.6069 -111.9539 358° North 218 251 7,600 -1,131 Descending Salt Lake Center
Fri 07:47:53 PM 40.6719 -111.9628 354° North 206 237 6,300 -1,258 Descending Salt Lake Center
Fri 07:47:54 PM 40.6764 -111.9611 16° North 209 241 6,300 -885 Level Salt Lake Center
Fri 07:48:54 PM 40.7206 -111.9689 352° North 150 173 5,400 -885 Descending Salt Lake Center
Fri 07:48:55 PM 40.7219 -111.9667 50° Northeast 168 193 5,400 -762 Level Salt Lake Center
Fri 07:49:57 PM 40.7619 -111.9714 355° North 147 169 4,600 -532 Descending Salt Lake Center
Fri 07:50:59 PM 40.7947 -111.9744 356° North 124 143 4,300 -290 Descending Salt Lake Center
Fri 07:52:00 PM 40.7833 -111.9667 North  Level FlightAware Approximate

Login

Don't have an account? Register now (free) for customized features, flight alerts, and more!